Southern Ontario METAR Reports

CYSN - St.Catharines
Updated: 04/27/2017 10:00am
Mostly cloudy
Mostly cloudy
 Wind from N
Wind: N 6 km/h
Temperature: 13°C
Dew Point: 10°C
Humidity: 82%
Barometer: 1004.4 hPa
Clouds: Mostly cloudy
Visibility: 24 km
Cloud details: Mostly cloudy 7620 m
2017/04/27 14:00 CYSN 271400Z 35003KT 270V070 15SM BKN250 13/10 A2966 RMK CI7 SLP045 DENSITY ALT 400FT
CYHM - Hamilton
Updated: 04/27/2017 10:00am
Partly cloudy
Partly cloudy
 Wind from ESE
Wind: ESE 11 km/h
Temperature: 18°C
Dew Point: 14°C
Humidity: 78%
Barometer: 1004.1 hPa
Clouds: Partly cloudy
Visibility: 24 km
Cloud details: Partly cloudy 7315 m
2017/04/27 14:00 CYHM 271400Z 11006KT 15SM SCT240 18/14 A2965 RMK CI4 SLP044 DENSITY ALT 1500FT
 
CYYZ - Toronto
Updated: 04/27/2017 10:00am
Mostly cloudy
Mostly cloudy
 Wind from SE
Wind: SE 13 km/h
Temperature: 19°C
Dew Point: 14°C
Humidity: 73%
Barometer: 1004.1 hPa
Clouds: Mostly cloudy
Visibility: 24 km
Cloud details: Mostly cloudy 7010 m
2017/04/27 14:00 CYYZ 271400Z 14007KT 15SM BKN230 19/14 A2965 RMK CI6 SLP042 DENSITY ALT 1400FT
CYKF - Waterloo
Updated: 04/27/2017 10:00am
Clear
Clear
 Wind from SE
Wind: SE 19 km/h
Temperature: 19°C
Dew Point: 13°C
Humidity: 68%
Barometer: 1003.4 hPa
Clouds: Clear
Visibility: 14 km
2017/04/27 14:00 CYKF 271400Z AUTO 14010KT 9SM CLR 19/13 A2963 RMK SLP035 DENSITY ALT 2000FT
 
CYXU - London
Updated: 04/27/2017 10:00am
Mostly cloudy
Mostly cloudy
 Wind from S
Wind: S 30 km/h
Temperature: 22°C
Dew Point: 14°C
Humidity: 61%
Barometer: 1002 hPa
Clouds: Mostly cloudy
Visibility: 24 km
Cloud details: Few Clouds 1829 m
Few Clouds 3962 m
Mostly cloudy 7925 m
2017/04/27 14:00 CYXU 271400Z 18016KT 15SM FEW060 FEW130 BKN260 22/14 A2959 RMK SC1AC1CI3 SLP019 DENSITY ALT 2300FT
CYQG - Windsor
Updated: 04/27/2017 10:00am
Mostly cloudy
Mostly cloudy
 Wind from SSW
Wind: SSW 28 km/h
Temperature: 22°C
Dew Point: 13°C
Humidity: 57%
Barometer: 999.3 hPa
Clouds: Mostly cloudy
Visibility: 24 km
Cloud details: Few Clouds 1097 m
Mostly cloudy 5486 m
Mostly cloudy 7925 m
2017/04/27 14:00 CYQG 271400Z 20015KT 15SM FEW036 BKN180 BKN260 22/13 A2951 RMK CU2AC3CI2 SLP994 DENSITY ALT 2000FT
 
CYZR - Sarnia
Updated: 04/27/2017 10:00am
Partly cloudy
Partly cloudy
 Wind from S
Wind: S 26 km/h, Gust: 43 km/h
Temperature: 23°C
Dew Point: 14°C
Humidity: 57%
Barometer: 999.3 hPa
Clouds: Partly cloudy
Visibility: 14 km
Cloud details: Partly cloudy 6401 m
2017/04/27 14:00 CYZR 271400Z AUTO 19014G23KT 9SM SCT210 23/14 A2951 RMK SLP994 DENSITY ALT 2100FT
CYVV - Wiarton
Updated: 04/27/2017 10:00am
Mostly cloudy
Mostly cloudy
 Wind from S
Wind: S 28 km/h, Gust: 41 km/h
Temperature: 23°C
Dew Point: 13°C
Humidity: 53%
Barometer: 999.7 hPa
Clouds: Mostly cloudy
Visibility: 24 km
Cloud details: Few Clouds 4572 m
Mostly cloudy 7620 m
2017/04/27 14:00 CYVV 271400Z 18015G22KT 15SM FEW150 BKN250 23/13 A2952 RMK AC1CI4 SLP997 DENSITY ALT 2300FT
 
CYPQ - Peterborough
Updated: 04/27/2017 10:00am
Clear
Clear
 Wind from SE
Wind: SE 15 km/h
Temperature: 21°C
Dew Point: 15°C
Humidity: 69%
Barometer: 1005.4 hPa
Clouds: Clear
Visibility: 14 km
2017/04/27 14:00 CYPQ 271400Z AUTO 14008KT 120V190 9SM CLR 21/15 A2969 RMK SLP057 DENSITY ALT 1700FT
CYTR - Trenton
Updated: 04/27/2017 10:00am
Mostly cloudy
Mostly cloudy
 Wind from SSE
Wind: SSE 11 km/h
Temperature: 20°C
Dew Point: 16°C
Humidity: 78%
Barometer: 1006.4 hPa
Clouds: Mostly cloudy
Visibility: 24 km
Cloud details: Mostly cloudy 7620 m
2017/04/27 14:00 CYTR 271400Z 15006KT 15SM BKN250 20/16 A2972 RMK CI6 SLP065